sensor_id;sensor_type;location;lat;lon;timestamp;P1;durP1;ratioP1;P2;durP2;ratioP2
22904;SDS011;11619;50.140;8.518;2022-11-20T00:01:05;25.13;;;19.65;;
22904;SDS011;11619;50.140;8.518;2022-11-20T00:03:32;24.65;;;18.70;;
22904;SDS011;11619;50.140;8.518;2022-11-20T00:05:59;23.80;;;18.85;;
22904;SDS011;11619;50.140;8.518;2022-11-20T00:08:27;25.10;;;20.67;;
22904;SDS011;11619;50.140;8.518;2022-11-20T00:10:53;25.27;;;19.95;;
22904;SDS011;11619;50.140;8.518;2022-11-20T00:13:20;23.52;;;19.15;;
22904;SDS011;11619;50.140;8.518;2022-11-20T00:15:46;24.40;;;18.58;;
22904;SDS011;11619;50.140;8.518;2022-11-20T00:18:13;25.38;;;19.60;;
22904;SDS011;11619;50.140;8.518;2022-11-20T00:20:39;24.65;;;19.38;;
22904;SDS011;11619;50.140;8.518;2022-11-20T00:23:05;23.27;;;18.45;;
22904;SDS011;11619;50.140;8.518;2022-11-20T00:25:33;25.65;;;20.20;;
22904;SDS011;11619;50.140;8.518;2022-11-20T00:28:00;24.48;;;18.63;;
22904;SDS011;11619;50.140;8.518;2022-11-20T00:30:27;25.48;;;19.70;;
22904;SDS011;11619;50.140;8.518;2022-11-20T00:32:53;26.00;;;19.75;;
22904;SDS011;11619;50.140;8.518;2022-11-20T00:35:22;24.15;;;18.83;;
22904;SDS011;11619;50.140;8.518;2022-11-20T00:37:48;24.38;;;19.40;;
22904;SDS011;11619;50.140;8.518;2022-11-20T00:40:15;24.85;;;19.30;;
22904;SDS011;11619;50.140;8.518;2022-11-20T00:42:41;25.38;;;18.90;;
22904;SDS011;11619;50.140;8.518;2022-11-20T00:45:08;23.40;;;18.90;;
22904;SDS011;11619;50.140;8.518;2022-11-20T00:47:34;26.15;;;19.13;;
22904;SDS011;11619;50.140;8.518;2022-11-20T00:50:00;23.08;;;18.95;;
22904;SDS011;11619;50.140;8.518;2022-11-20T00:52:27;26.90;;;19.85;;
22904;SDS011;11619;50.140;8.518;2022-11-20T00:54:53;24.65;;;19.77;;
22904;SDS011;11619;50.140;8.518;2022-11-20T00:57:20;24.38;;;19.02;;
22904;SDS011;11619;50.140;8.518;2022-11-20T00:59:46;24.13;;;18.85;;
22904;SDS011;11619;50.140;8.518;2022-11-20T01:02:12;26.73;;;19.52;;
22904;SDS011;11619;50.140;8.518;2022-11-20T01:04:39;23.88;;;19.00;;
22904;SDS011;11619;50.140;8.518;2022-11-20T01:07:05;25.33;;;19.33;;
22904;SDS011;11619;50.140;8.518;2022-11-20T01:09:32;23.20;;;18.38;;
22904;SDS011;11619;50.140;8.518;2022-11-20T01:11:58;26.83;;;20.38;;
22904;SDS011;11619;50.140;8.518;2022-11-20T01:14:25;25.60;;;19.02;;
22904;SDS011;11619;50.140;8.518;2022-11-20T01:16:51;27.10;;;21.00;;
22904;SDS011;11619;50.140;8.518;2022-11-20T01:19:22;25.88;;;20.38;;
22904;SDS011;11619;50.140;8.518;2022-11-20T01:21:51;25.95;;;19.15;;
22904;SDS011;11619;50.140;8.518;2022-11-20T01:24:19;26.05;;;19.90;;
22904;SDS011;11619;50.140;8.518;2022-11-20T01:26:47;26.05;;;19.60;;
22904;SDS011;11619;50.140;8.518;2022-11-20T01:29:16;24.15;;;19.42;;
22904;SDS011;11619;50.140;8.518;2022-11-20T01:31:46;25.10;;;19.63;;
22904;SDS011;11619;50.140;8.518;2022-11-20T01:34:14;26.25;;;20.55;;
22904;SDS011;11619;50.140;8.518;2022-11-20T01:36:42;23.80;;;18.33;;
22904;SDS011;11619;50.140;8.518;2022-11-20T01:41:39;24.95;;;20.60;;
22904;SDS011;11619;50.140;8.518;2022-11-20T01:49:59;24.85;;;19.80;;
22904;SDS011;11619;50.140;8.518;2022-11-20T01:52:50;26.98;;;20.88;;
22904;SDS011;11619;50.140;8.518;2022-11-20T01:55:22;25.60;;;20.92;;
22904;SDS011;11619;50.140;8.518;2022-11-20T01:57:52;26.58;;;20.27;;
22904;SDS011;11619;50.140;8.518;2022-11-20T02:00:19;26.00;;;20.58;;
22904;SDS011;11619;50.140;8.518;2022-11-20T02:03:00;25.40;;;20.83;;
22904;SDS011;11619;50.140;8.518;2022-11-20T02:05:37;27.75;;;21.63;;
22904;SDS011;11619;50.140;8.518;2022-11-20T02:08:05;25.63;;;20.45;;
22904;SDS011;11619;50.140;8.518;2022-11-20T02:10:33;28.65;;;21.95;;
22904;SDS011;11619;50.140;8.518;2022-11-20T02:12:59;28.58;;;22.08;;
22904;SDS011;11619;50.140;8.518;2022-11-20T02:15:49;30.42;;;22.70;;
22904;SDS011;11619;50.140;8.518;2022-11-20T02:18:17;27.15;;;21.23;;
22904;SDS011;11619;50.140;8.518;2022-11-20T02:20:48;28.45;;;21.73;;
22904;SDS011;11619;50.140;8.518;2022-11-20T02:23:24;26.70;;;20.13;;
22904;SDS011;11619;50.140;8.518;2022-11-20T02:25:53;29.75;;;22.85;;
22904;SDS011;11619;50.140;8.518;2022-11-20T02:28:20;25.20;;;20.63;;
22904;SDS011;11619;50.140;8.518;2022-11-20T02:30:47;26.45;;;20.75;;
22904;SDS011;11619;50.140;8.518;2022-11-20T02:33:13;28.08;;;21.67;;
22904;SDS011;11619;50.140;8.518;2022-11-20T02:35:41;27.95;;;21.20;;
22904;SDS011;11619;50.140;8.518;2022-11-20T02:38:09;27.77;;;21.17;;
22904;SDS011;11619;50.140;8.518;2022-11-20T02:40:36;26.38;;;20.83;;
22904;SDS011;11619;50.140;8.518;2022-11-20T02:43:02;28.15;;;21.90;;
22904;SDS011;11619;50.140;8.518;2022-11-20T02:45:32;29.45;;;22.60;;
22904;SDS011;11619;50.140;8.518;2022-11-20T02:47:58;27.05;;;20.92;;
22904;SDS011;11619;50.140;8.518;2022-11-20T02:50:27;27.17;;;21.30;;
22904;SDS011;11619;50.140;8.518;2022-11-20T02:52:53;27.05;;;21.67;;
22904;SDS011;11619;50.140;8.518;2022-11-20T02:55:22;30.58;;;22.05;;
22904;SDS011;11619;50.140;8.518;2022-11-20T02:57:49;30.02;;;23.00;;
22904;SDS011;11619;50.140;8.518;2022-11-20T03:00:16;30.13;;;22.77;;
22904;SDS011;11619;50.140;8.518;2022-11-20T03:02:42;31.25;;;23.58;;
22904;SDS011;11619;50.140;8.518;2022-11-20T03:05:09;29.77;;;21.63;;
22904;SDS011;11619;50.140;8.518;2022-11-20T03:07:35;28.38;;;22.35;;
22904;SDS011;11619;50.140;8.518;2022-11-20T03:10:02;31.08;;;23.27;;
22904;SDS011;11619;50.140;8.518;2022-11-20T03:12:30;27.45;;;21.92;;
22904;SDS011;11619;50.140;8.518;2022-11-20T03:14:57;27.70;;;22.98;;
22904;SDS011;11619;50.140;8.518;2022-11-20T03:17:23;30.45;;;22.58;;
22904;SDS011;11619;50.140;8.518;2022-11-20T03:19:50;29.48;;;22.40;;
22904;SDS011;11619;50.140;8.518;2022-11-20T03:22:16;31.75;;;22.70;;
22904;SDS011;11619;50.140;8.518;2022-11-20T03:24:43;29.55;;;22.35;;
22904;SDS011;11619;50.140;8.518;2022-11-20T03:27:09;29.98;;;23.00;;
22904;SDS011;11619;50.140;8.518;2022-11-20T03:29:36;28.67;;;21.95;;
22904;SDS011;11619;50.140;8.518;2022-11-20T03:32:02;28.00;;;22.00;;
22904;SDS011;11619;50.140;8.518;2022-11-20T03:34:28;33.00;;;23.27;;
22904;SDS011;11619;50.140;8.518;2022-11-20T03:36:55;28.83;;;21.67;;
22904;SDS011;11619;50.140;8.518;2022-11-20T03:39:21;30.98;;;23.65;;
22904;SDS011;11619;50.140;8.518;2022-11-20T03:41:49;30.08;;;22.73;;
22904;SDS011;11619;50.140;8.518;2022-11-20T03:44:15;29.55;;;21.77;;
22904;SDS011;11619;50.140;8.518;2022-11-20T03:46:42;28.40;;;23.02;;
22904;SDS011;11619;50.140;8.518;2022-11-20T03:49:08;30.83;;;23.45;;
22904;SDS011;11619;50.140;8.518;2022-11-20T03:51:35;27.08;;;21.73;;
22904;SDS011;11619;50.140;8.518;2022-11-20T03:54:03;30.33;;;23.15;;
22904;SDS011;11619;50.140;8.518;2022-11-20T03:56:32;29.45;;;23.17;;
22904;SDS011;11619;50.140;8.518;2022-11-20T03:59:00;30.40;;;22.63;;
22904;SDS011;11619;50.140;8.518;2022-11-20T04:01:28;28.67;;;22.98;;
22904;SDS011;11619;50.140;8.518;2022-11-20T04:03:57;30.05;;;23.58;;
22904;SDS011;11619;50.140;8.518;2022-11-20T04:06:25;29.20;;;22.35;;
22904;SDS011;11619;50.140;8.518;2022-11-20T04:08:57;27.23;;;20.65;;
22904;SDS011;11619;50.140;8.518;2022-11-20T04:11:25;28.33;;;21.90;;
22904;SDS011;11619;50.140;8.518;2022-11-20T04:13:59;25.42;;;20.75;;
22904;SDS011;11619;50.140;8.518;2022-11-20T04:16:28;27.20;;;21.88;;
22904;SDS011;11619;50.140;8.518;2022-11-20T04:18:57;28.25;;;21.95;;
22904;SDS011;11619;50.140;8.518;2022-11-20T04:21:24;29.75;;;22.33;;
22904;SDS011;11619;50.140;8.518;2022-11-20T04:23:51;30.95;;;23.20;;
22904;SDS011;11619;50.140;8.518;2022-11-20T04:26:19;27.48;;;22.70;;
22904;SDS011;11619;50.140;8.518;2022-11-20T04:28:46;29.38;;;21.48;;
22904;SDS011;11619;50.140;8.518;2022-11-20T04:31:13;27.80;;;22.35;;
22904;SDS011;11619;50.140;8.518;2022-11-20T04:33:41;31.65;;;23.83;;
22904;SDS011;11619;50.140;8.518;2022-11-20T04:36:12;30.88;;;23.27;;
22904;SDS011;11619;50.140;8.518;2022-11-20T04:38:41;31.15;;;23.50;;
22904;SDS011;11619;50.140;8.518;2022-11-20T04:41:08;30.10;;;23.70;;
22904;SDS011;11619;50.140;8.518;2022-11-20T04:43:38;29.73;;;22.23;;
22904;SDS011;11619;50.140;8.518;2022-11-20T04:46:04;30.02;;;23.08;;
22904;SDS011;11619;50.140;8.518;2022-11-20T04:48:31;29.77;;;22.63;;
22904;SDS011;11619;50.140;8.518;2022-11-20T04:50:57;31.30;;;24.77;;
22904;SDS011;11619;50.140;8.518;2022-11-20T04:53:29;30.08;;;23.08;;
22904;SDS011;11619;50.140;8.518;2022-11-20T04:56:02;28.27;;;22.95;;
22904;SDS011;11619;50.140;8.518;2022-11-20T04:58:29;31.10;;;23.50;;
22904;SDS011;11619;50.140;8.518;2022-11-20T05:01:02;33.35;;;23.77;;
22904;SDS011;11619;50.140;8.518;2022-11-20T05:03:30;28.55;;;22.55;;
22904;SDS011;11619;50.140;8.518;2022-11-20T05:06:03;28.33;;;21.75;;
22904;SDS011;11619;50.140;8.518;2022-11-20T05:08:31;27.85;;;22.10;;
22904;SDS011;11619;50.140;8.518;2022-11-20T05:13:29;30.42;;;22.63;;
22904;SDS011;11619;50.140;8.518;2022-11-20T05:15:55;29.77;;;22.55;;
22904;SDS011;11619;50.140;8.518;2022-11-20T05:18:27;31.33;;;23.80;;
22904;SDS011;11619;50.140;8.518;2022-11-20T05:20:54;29.40;;;23.65;;
22904;SDS011;11619;50.140;8.518;2022-11-20T05:23:22;30.48;;;22.25;;
22904;SDS011;11619;50.140;8.518;2022-11-20T05:25:51;27.90;;;22.23;;
22904;SDS011;11619;50.140;8.518;2022-11-20T05:28:24;29.75;;;22.25;;
22904;SDS011;11619;50.140;8.518;2022-11-20T05:30:51;28.38;;;21.80;;
22904;SDS011;11619;50.140;8.518;2022-11-20T05:33:17;28.65;;;20.63;;
22904;SDS011;11619;50.140;8.518;2022-11-20T05:35:44;28.80;;;21.55;;
22904;SDS011;11619;50.140;8.518;2022-11-20T05:38:11;31.55;;;21.42;;
22904;SDS011;11619;50.140;8.518;2022-11-20T05:40:37;30.73;;;22.55;;
22904;SDS011;11619;50.140;8.518;2022-11-20T05:43:04;33.88;;;21.73;;
22904;SDS011;11619;50.140;8.518;2022-11-20T05:45:30;29.42;;;22.48;;
22904;SDS011;11619;50.140;8.518;2022-11-20T05:47:59;29.35;;;23.15;;
22904;SDS011;11619;50.140;8.518;2022-11-20T05:50:27;28.92;;;22.55;;
22904;SDS011;11619;50.140;8.518;2022-11-20T05:52:54;30.58;;;21.13;;
22904;SDS011;11619;50.140;8.518;2022-11-20T05:55:20;31.73;;;21.50;;
22904;SDS011;11619;50.140;8.518;2022-11-20T05:57:47;26.95;;;22.02;;
22904;SDS011;11619;50.140;8.518;2022-11-20T06:00:13;31.20;;;22.98;;
22904;SDS011;11619;50.140;8.518;2022-11-20T06:02:40;31.77;;;22.80;;
22904;SDS011;11619;50.140;8.518;2022-11-20T06:05:07;31.85;;;23.65;;
22904;SDS011;11619;50.140;8.518;2022-11-20T06:07:33;30.73;;;22.90;;
22904;SDS011;11619;50.140;8.518;2022-11-20T06:10:00;29.88;;;22.73;;
22904;SDS011;11619;50.140;8.518;2022-11-20T06:12:26;29.35;;;22.63;;
22904;SDS011;11619;50.140;8.518;2022-11-20T06:14:53;31.17;;;23.48;;
22904;SDS011;11619;50.140;8.518;2022-11-20T06:17:19;32.45;;;24.42;;
22904;SDS011;11619;50.140;8.518;2022-11-20T06:19:45;31.30;;;22.30;;
22904;SDS011;11619;50.140;8.518;2022-11-20T06:22:12;30.65;;;22.95;;
22904;SDS011;11619;50.140;8.518;2022-11-20T06:24:38;32.85;;;23.92;;
22904;SDS011;11619;50.140;8.518;2022-11-20T06:27:04;29.25;;;22.20;;
22904;SDS011;11619;50.140;8.518;2022-11-20T06:29:31;32.97;;;24.38;;
22904;SDS011;11619;50.140;8.518;2022-11-20T06:31:59;31.80;;;23.75;;
22904;SDS011;11619;50.140;8.518;2022-11-20T06:34:25;33.53;;;25.38;;
22904;SDS011;11619;50.140;8.518;2022-11-20T06:36:52;36.63;;;24.90;;
22904;SDS011;11619;50.140;8.518;2022-11-20T06:39:18;36.22;;;26.58;;
22904;SDS011;11619;50.140;8.518;2022-11-20T06:41:45;30.88;;;22.77;;
22904;SDS011;11619;50.140;8.518;2022-11-20T06:44:12;34.92;;;24.38;;
22904;SDS011;11619;50.140;8.518;2022-11-20T06:46:38;35.05;;;25.20;;
22904;SDS011;11619;50.140;8.518;2022-11-20T06:49:05;36.42;;;26.35;;
22904;SDS011;11619;50.140;8.518;2022-11-20T06:51:31;36.22;;;25.58;;
22904;SDS011;11619;50.140;8.518;2022-11-20T06:53:58;36.78;;;25.77;;
22904;SDS011;11619;50.140;8.518;2022-11-20T06:56:24;36.40;;;25.92;;
22904;SDS011;11619;50.140;8.518;2022-11-20T06:58:51;37.72;;;26.23;;
22904;SDS011;11619;50.140;8.518;2022-11-20T07:01:17;61.13;;;30.17;;
22904;SDS011;11619;50.140;8.518;2022-11-20T07:03:43;76.63;;;34.83;;
22904;SDS011;11619;50.140;8.518;2022-11-20T07:06:13;78.47;;;38.60;;
22904;SDS011;11619;50.140;8.518;2022-11-20T07:08:39;86.88;;;40.28;;
22904;SDS011;11619;50.140;8.518;2022-11-20T07:11:06;85.93;;;41.20;;
22904;SDS011;11619;50.140;8.518;2022-11-20T07:13:33;80.43;;;40.72;;
22904;SDS011;11619;50.140;8.518;2022-11-20T07:16:00;65.93;;;36.92;;
22904;SDS011;11619;50.140;8.518;2022-11-20T07:18:30;54.20;;;32.75;;
22904;SDS011;11619;50.140;8.518;2022-11-20T07:20:59;56.65;;;34.28;;
22904;SDS011;11619;50.140;8.518;2022-11-20T07:23:30;50.53;;;32.07;;
22904;SDS011;11619;50.140;8.518;2022-11-20T07:25:56;48.83;;;32.10;;
22904;SDS011;11619;50.140;8.518;2022-11-20T07:28:22;45.22;;;30.80;;
22904;SDS011;11619;50.140;8.518;2022-11-20T07:30:50;46.67;;;29.92;;
22904;SDS011;11619;50.140;8.518;2022-11-20T07:33:19;58.67;;;33.50;;
22904;SDS011;11619;50.140;8.518;2022-11-20T07:35:46;49.60;;;31.67;;
22904;SDS011;11619;50.140;8.518;2022-11-20T07:38:12;41.15;;;28.48;;
22904;SDS011;11619;50.140;8.518;2022-11-20T07:40:39;36.55;;;25.52;;
22904;SDS011;11619;50.140;8.518;2022-11-20T07:43:05;36.13;;;25.83;;
22904;SDS011;11619;50.140;8.518;2022-11-20T07:45:31;33.42;;;25.55;;
22904;SDS011;11619;50.140;8.518;2022-11-20T07:47:58;33.17;;;26.02;;
22904;SDS011;11619;50.140;8.518;2022-11-20T07:50:24;37.85;;;27.30;;
22904;SDS011;11619;50.140;8.518;2022-11-20T07:52:51;36.53;;;26.38;;
22904;SDS011;11619;50.140;8.518;2022-11-20T07:55:18;36.08;;;27.45;;
22904;SDS011;11619;50.140;8.518;2022-11-20T07:57:44;35.38;;;26.05;;
22904;SDS011;11619;50.140;8.518;2022-11-20T08:00:11;35.70;;;26.55;;
22904;SDS011;11619;50.140;8.518;2022-11-20T08:02:38;33.45;;;25.13;;
22904;SDS011;11619;50.140;8.518;2022-11-20T08:05:08;35.20;;;26.77;;
22904;SDS011;11619;50.140;8.518;2022-11-20T08:07:38;40.95;;;28.58;;
22904;SDS011;11619;50.140;8.518;2022-11-20T08:10:06;44.10;;;28.92;;
22904;SDS011;11619;50.140;8.518;2022-11-20T08:12:33;37.25;;;27.38;;
22904;SDS011;11619;50.140;8.518;2022-11-20T08:15:18;41.38;;;28.05;;
22904;SDS011;11619;50.140;8.518;2022-11-20T08:17:45;42.05;;;26.88;;
22904;SDS011;11619;50.140;8.518;2022-11-20T08:20:32;35.95;;;25.17;;
22904;SDS011;11619;50.140;8.518;2022-11-20T08:23:02;47.88;;;28.90;;
22904;SDS011;11619;50.140;8.518;2022-11-20T08:25:32;55.85;;;31.25;;
22904;SDS011;11619;50.140;8.518;2022-11-20T08:28:00;49.47;;;30.48;;
22904;SDS011;11619;50.140;8.518;2022-11-20T08:30:40;44.63;;;28.70;;
22904;SDS011;11619;50.140;8.518;2022-11-20T08:33:08;44.75;;;29.65;;
22904;SDS011;11619;50.140;8.518;2022-11-20T08:35:35;43.50;;;28.92;;
22904;SDS011;11619;50.140;8.518;2022-11-20T08:38:03;39.08;;;26.10;;
22904;SDS011;11619;50.140;8.518;2022-11-20T08:40:30;44.65;;;28.48;;
22904;SDS011;11619;50.140;8.518;2022-11-20T08:42:56;46.55;;;28.88;;
22904;SDS011;11619;50.140;8.518;2022-11-20T08:45:23;46.85;;;28.63;;
22904;SDS011;11619;50.140;8.518;2022-11-20T08:47:52;47.53;;;28.38;;
22904;SDS011;11619;50.140;8.518;2022-11-20T08:50:18;49.85;;;29.70;;
22904;SDS011;11619;50.140;8.518;2022-11-20T08:52:45;49.03;;;30.98;;
22904;SDS011;11619;50.140;8.518;2022-11-20T08:55:11;44.72;;;29.10;;
22904;SDS011;11619;50.140;8.518;2022-11-20T08:57:38;48.13;;;30.80;;
22904;SDS011;11619;50.140;8.518;2022-11-20T09:00:05;49.55;;;30.80;;
22904;SDS011;11619;50.140;8.518;2022-11-20T09:02:34;51.60;;;32.17;;
22904;SDS011;11619;50.140;8.518;2022-11-20T09:05:00;48.08;;;30.77;;
22904;SDS011;11619;50.140;8.518;2022-11-20T09:07:28;45.33;;;31.05;;
22904;SDS011;11619;50.140;8.518;2022-11-20T09:09:55;43.47;;;28.33;;
22904;SDS011;11619;50.140;8.518;2022-11-20T09:12:41;48.72;;;28.58;;
22904;SDS011;11619;50.140;8.518;2022-11-20T09:15:08;48.42;;;29.50;;
22904;SDS011;11619;50.140;8.518;2022-11-20T09:17:35;50.33;;;30.92;;
22904;SDS011;11619;50.140;8.518;2022-11-20T09:20:01;48.58;;;30.50;;
22904;SDS011;11619;50.140;8.518;2022-11-20T09:22:27;53.22;;;31.65;;
22904;SDS011;11619;50.140;8.518;2022-11-20T09:24:54;50.10;;;31.40;;
22904;SDS011;11619;50.140;8.518;2022-11-20T09:27:20;51.63;;;30.90;;
22904;SDS011;11619;50.140;8.518;2022-11-20T09:29:47;48.70;;;30.20;;
22904;SDS011;11619;50.140;8.518;2022-11-20T09:32:13;50.28;;;31.88;;
22904;SDS011;11619;50.140;8.518;2022-11-20T09:34:41;52.13;;;30.50;;
22904;SDS011;11619;50.140;8.518;2022-11-20T09:37:07;51.85;;;31.63;;
22904;SDS011;11619;50.140;8.518;2022-11-20T09:39:34;53.92;;;32.92;;
22904;SDS011;11619;50.140;8.518;2022-11-20T09:42:11;52.42;;;32.88;;
22904;SDS011;11619;50.140;8.518;2022-11-20T09:55:26;44.08;;;28.55;;
22904;SDS011;11619;50.140;8.518;2022-11-20T09:57:55;51.78;;;31.33;;
22904;SDS011;11619;50.140;8.518;2022-11-20T10:00:22;51.17;;;31.40;;
22904;SDS011;11619;50.140;8.518;2022-11-20T10:03:00;48.67;;;30.25;;
22904;SDS011;11619;50.140;8.518;2022-11-20T10:05:45;48.95;;;30.85;;
22904;SDS011;11619;50.140;8.518;2022-11-20T10:08:21;47.05;;;29.00;;
22904;SDS011;11619;50.140;8.518;2022-11-20T10:19:06;48.85;;;30.83;;
22904;SDS011;11619;50.140;8.518;2022-11-20T10:30:19;44.13;;;28.55;;
22904;SDS011;11619;50.140;8.518;2022-11-20T10:32:48;45.30;;;28.73;;
22904;SDS011;11619;50.140;8.518;2022-11-20T10:38:07;39.85;;;26.77;;
22904;SDS011;11619;50.140;8.518;2022-11-20T10:40:38;39.97;;;25.92;;
22904;SDS011;11619;50.140;8.518;2022-11-20T10:43:17;39.42;;;24.48;;
22904;SDS011;11619;50.140;8.518;2022-11-20T10:45:57;38.33;;;25.58;;
22904;SDS011;11619;50.140;8.518;2022-11-20T10:48:27;48.22;;;28.65;;
22904;SDS011;11619;50.140;8.518;2022-11-20T10:51:06;47.58;;;29.38;;
22904;SDS011;11619;50.140;8.518;2022-11-20T10:53:40;51.55;;;31.27;;
22904;SDS011;11619;50.140;8.518;2022-11-20T10:56:50;51.67;;;32.33;;
22904;SDS011;11619;50.140;8.518;2022-11-20T11:02:21;58.10;;;32.33;;
22904;SDS011;11619;50.140;8.518;2022-11-20T11:04:50;56.25;;;33.17;;
22904;SDS011;11619;50.140;8.518;2022-11-20T11:07:20;52.97;;;33.83;;
22904;SDS011;11619;50.140;8.518;2022-11-20T11:09:52;52.60;;;32.85;;
22904;SDS011;11619;50.140;8.518;2022-11-20T11:12:23;52.33;;;32.67;;
22904;SDS011;11619;50.140;8.518;2022-11-20T11:14:51;52.20;;;33.95;;
22904;SDS011;11619;50.140;8.518;2022-11-20T11:20:00;55.80;;;33.65;;
22904;SDS011;11619;50.140;8.518;2022-11-20T11:22:46;52.70;;;33.75;;
22904;SDS011;11619;50.140;8.518;2022-11-20T11:27:57;61.85;;;35.35;;
22904;SDS011;11619;50.140;8.518;2022-11-20T11:30:25;55.58;;;33.45;;
22904;SDS011;11619;50.140;8.518;2022-11-20T11:33:02;62.95;;;35.13;;
22904;SDS011;11619;50.140;8.518;2022-11-20T11:35:38;60.08;;;36.08;;
22904;SDS011;11619;50.140;8.518;2022-11-20T11:38:17;56.65;;;35.72;;
22904;SDS011;11619;50.140;8.518;2022-11-20T11:40:47;57.67;;;35.03;;
22904;SDS011;11619;50.140;8.518;2022-11-20T11:43:17;55.63;;;34.08;;
22904;SDS011;11619;50.140;8.518;2022-11-20T11:46:22;58.10;;;35.50;;
22904;SDS011;11619;50.140;8.518;2022-11-20T11:54:30;60.22;;;34.58;;
22904;SDS011;11619;50.140;8.518;2022-11-20T11:57:01;54.08;;;34.85;;
22904;SDS011;11619;50.140;8.518;2022-11-20T12:02:14;51.45;;;32.38;;
22904;SDS011;11619;50.140;8.518;2022-11-20T12:04:50;49.67;;;32.38;;
22904;SDS011;11619;50.140;8.518;2022-11-20T12:07:40;51.60;;;33.08;;
22904;SDS011;11619;50.140;8.518;2022-11-20T12:10:15;48.33;;;32.17;;
22904;SDS011;11619;50.140;8.518;2022-11-20T12:12:46;45.80;;;31.33;;
22904;SDS011;11619;50.140;8.518;2022-11-20T12:15:22;60.25;;;35.92;;
22904;SDS011;11619;50.140;8.518;2022-11-20T12:17:54;42.78;;;29.75;;
22904;SDS011;11619;50.140;8.518;2022-11-20T12:20:21;48.97;;;32.22;;
22904;SDS011;11619;50.140;8.518;2022-11-20T12:23:10;43.65;;;30.45;;
22904;SDS011;11619;50.140;8.518;2022-11-20T12:26:14;49.30;;;31.48;;
22904;SDS011;11619;50.140;8.518;2022-11-20T12:29:13;49.75;;;30.70;;
22904;SDS011;11619;50.140;8.518;2022-11-20T12:31:50;50.63;;;30.52;;
22904;SDS011;11619;50.140;8.518;2022-11-20T12:34:33;46.75;;;30.80;;
22904;SDS011;11619;50.140;8.518;2022-11-20T12:37:23;46.17;;;29.63;;
22904;SDS011;11619;50.140;8.518;2022-11-20T12:40:01;45.70;;;30.30;;
22904;SDS011;11619;50.140;8.518;2022-11-20T12:42:41;41.47;;;29.98;;
22904;SDS011;11619;50.140;8.518;2022-11-20T13:02:38;37.42;;;27.17;;
22904;SDS011;11619;50.140;8.518;2022-11-20T13:05:24;36.95;;;26.83;;
22904;SDS011;11619;50.140;8.518;2022-11-20T13:08:29;39.40;;;26.33;;
22904;SDS011;11619;50.140;8.518;2022-11-20T13:11:06;41.47;;;28.90;;
22904;SDS011;11619;50.140;8.518;2022-11-20T13:16:15;41.03;;;28.67;;
22904;SDS011;11619;50.140;8.518;2022-11-20T13:18:45;40.38;;;28.85;;
22904;SDS011;11619;50.140;8.518;2022-11-20T13:21:16;43.25;;;27.88;;
22904;SDS011;11619;50.140;8.518;2022-11-20T13:26:32;43.53;;;28.17;;
22904;SDS011;11619;50.140;8.518;2022-11-20T13:29:02;42.50;;;30.10;;
22904;SDS011;11619;50.140;8.518;2022-11-20T13:31:43;40.80;;;28.52;;
22904;SDS011;11619;50.140;8.518;2022-11-20T13:34:12;36.85;;;27.75;;
22904;SDS011;11619;50.140;8.518;2022-11-20T13:36:48;37.22;;;27.77;;
22904;SDS011;11619;50.140;8.518;2022-11-20T13:39:33;35.97;;;27.20;;
22904;SDS011;11619;50.140;8.518;2022-11-20T13:42:01;37.50;;;26.27;;
22904;SDS011;11619;50.140;8.518;2022-11-20T13:44:33;36.63;;;26.02;;
22904;SDS011;11619;50.140;8.518;2022-11-20T13:49:34;39.08;;;27.02;;
22904;SDS011;11619;50.140;8.518;2022-11-20T14:00:56;44.60;;;29.70;;
22904;SDS011;11619;50.140;8.518;2022-11-20T14:03:24;44.78;;;30.90;;
22904;SDS011;11619;50.140;8.518;2022-11-20T14:06:12;45.90;;;28.58;;
22904;SDS011;11619;50.140;8.518;2022-11-20T14:11:13;36.50;;;26.92;;
22904;SDS011;11619;50.140;8.518;2022-11-20T14:13:57;36.17;;;26.90;;
22904;SDS011;11619;50.140;8.518;2022-11-20T14:16:26;40.03;;;27.15;;
22904;SDS011;11619;50.140;8.518;2022-11-20T14:18:54;38.15;;;27.13;;
22904;SDS011;11619;50.140;8.518;2022-11-20T14:24:06;36.58;;;26.58;;
22904;SDS011;11619;50.140;8.518;2022-11-20T14:26:33;36.40;;;26.90;;
22904;SDS011;11619;50.140;8.518;2022-11-20T14:28:59;40.90;;;27.58;;
22904;SDS011;11619;50.140;8.518;2022-11-20T14:31:26;41.40;;;29.35;;
22904;SDS011;11619;50.140;8.518;2022-11-20T14:33:53;36.28;;;26.70;;
22904;SDS011;11619;50.140;8.518;2022-11-20T14:36:21;34.72;;;25.35;;
22904;SDS011;11619;50.140;8.518;2022-11-20T14:38:50;37.00;;;26.48;;
22904;SDS011;11619;50.140;8.518;2022-11-20T14:41:18;37.05;;;26.48;;
22904;SDS011;11619;50.140;8.518;2022-11-20T14:43:47;39.05;;;27.10;;
22904;SDS011;11619;50.140;8.518;2022-11-20T14:46:17;37.22;;;27.83;;
22904;SDS011;11619;50.140;8.518;2022-11-20T14:48:47;36.60;;;26.95;;
22904;SDS011;11619;50.140;8.518;2022-11-20T14:54:10;34.70;;;25.05;;
22904;SDS011;11619;50.140;8.518;2022-11-20T14:56:38;31.05;;;22.17;;
22904;SDS011;11619;50.140;8.518;2022-11-20T14:59:04;33.70;;;23.60;;
22904;SDS011;11619;50.140;8.518;2022-11-20T15:01:31;31.95;;;23.85;;
22904;SDS011;11619;50.140;8.518;2022-11-20T15:04:00;31.30;;;23.35;;
22904;SDS011;11619;50.140;8.518;2022-11-20T15:06:28;38.53;;;24.95;;
22904;SDS011;11619;50.140;8.518;2022-11-20T15:08:55;34.50;;;25.23;;
22904;SDS011;11619;50.140;8.518;2022-11-20T15:11:29;30.55;;;24.67;;
22904;SDS011;11619;50.140;8.518;2022-11-20T15:14:04;33.30;;;23.98;;
22904;SDS011;11619;50.140;8.518;2022-11-20T15:16:32;28.65;;;21.75;;
22904;SDS011;11619;50.140;8.518;2022-11-20T15:18:59;32.13;;;23.95;;
22904;SDS011;11619;50.140;8.518;2022-11-20T15:21:26;31.63;;;23.15;;
22904;SDS011;11619;50.140;8.518;2022-11-20T15:23:52;32.80;;;22.58;;
22904;SDS011;11619;50.140;8.518;2022-11-20T15:26:26;30.95;;;23.77;;
22904;SDS011;11619;50.140;8.518;2022-11-20T15:28:53;36.55;;;24.30;;
22904;SDS011;11619;50.140;8.518;2022-11-20T15:31:22;32.13;;;24.85;;
22904;SDS011;11619;50.140;8.518;2022-11-20T15:33:49;31.23;;;24.42;;
22904;SDS011;11619;50.140;8.518;2022-11-20T15:36:15;30.27;;;23.90;;
22904;SDS011;11619;50.140;8.518;2022-11-20T15:38:41;48.30;;;33.70;;
22904;SDS011;11619;50.140;8.518;2022-11-20T15:41:08;36.47;;;26.83;;
22904;SDS011;11619;50.140;8.518;2022-11-20T15:43:35;34.28;;;26.63;;
22904;SDS011;11619;50.140;8.518;2022-11-20T15:46:13;34.45;;;26.90;;
22904;SDS011;11619;50.140;8.518;2022-11-20T15:48:42;35.00;;;26.70;;
22904;SDS011;11619;50.140;8.518;2022-11-20T15:51:29;33.63;;;24.92;;
22904;SDS011;11619;50.140;8.518;2022-11-20T15:53:57;33.28;;;24.25;;
22904;SDS011;11619;50.140;8.518;2022-11-20T15:56:24;31.70;;;24.00;;
22904;SDS011;11619;50.140;8.518;2022-11-20T15:58:51;29.80;;;22.85;;
22904;SDS011;11619;50.140;8.518;2022-11-20T16:01:18;32.08;;;24.40;;
22904;SDS011;11619;50.140;8.518;2022-11-20T16:03:46;34.42;;;25.20;;
22904;SDS011;11619;50.140;8.518;2022-11-20T16:06:13;34.65;;;25.48;;
22904;SDS011;11619;50.140;8.518;2022-11-20T16:08:41;37.83;;;29.48;;
22904;SDS011;11619;50.140;8.518;2022-11-20T16:11:10;38.13;;;27.30;;
22904;SDS011;11619;50.140;8.518;2022-11-20T16:13:38;38.72;;;27.05;;
22904;SDS011;11619;50.140;8.518;2022-11-20T16:16:23;29.60;;;22.75;;